createdAt,value
2022-12-23T00:02:05.480Z,88.55
2022-12-23T00:04:32.980Z,89.13
2022-12-23T00:07:00.757Z,87.84
2022-12-23T00:09:28.294Z,88.06
2022-12-23T00:12:14.440Z,88.35
2022-12-23T00:15:00.362Z,88.73
2022-12-23T00:17:28.011Z,88.55
2022-12-23T00:19:55.807Z,88.30
2022-12-23T00:22:43.388Z,87.96
2022-12-23T00:25:14.333Z,88.66
2022-12-23T00:28:01.217Z,88.42
2022-12-23T00:30:29.180Z,88.13
2022-12-23T00:32:56.768Z,89.07
2022-12-23T00:35:24.316Z,88.29
2022-12-23T00:37:51.867Z,88.70
2022-12-23T00:40:38.143Z,88.83
2022-12-23T00:43:05.626Z,88.40
2022-12-23T00:45:33.146Z,88.37
2022-12-23T00:48:19.303Z,88.65
2022-12-23T00:50:46.886Z,88.10
2022-12-23T00:53:14.455Z,88.39
2022-12-23T00:55:42.316Z,87.95
2022-12-23T00:58:09.844Z,88.17
2022-12-23T01:00:56.588Z,88.64
2022-12-23T01:03:42.893Z,88.92
2022-12-23T01:06:10.668Z,88.61
2022-12-23T01:08:38.591Z,88.56
2022-12-23T01:11:08.547Z,88.88
2022-12-23T01:13:37.481Z,88.78
2022-12-23T01:16:13.331Z,88.75
2022-12-23T01:18:45.188Z,88.76
2022-12-23T01:21:12.918Z,89.23
2022-12-23T01:23:40.554Z,88.92
2022-12-23T01:26:08.740Z,88.98
2022-12-23T01:28:36.732Z,88.48
2022-12-23T01:31:06.166Z,88.89
2022-12-23T01:33:33.971Z,89.37
2022-12-23T01:36:02.994Z,89.68
2022-12-23T01:38:30.652Z,89.06
2022-12-23T01:40:58.294Z,88.18
2022-12-23T01:43:47.453Z,88.51
2022-12-23T01:46:15.227Z,88.59
2022-12-23T01:48:49.223Z,88.41
2022-12-23T01:51:23.179Z,89.18
2022-12-23T01:53:54.772Z,89.34
2022-12-23T01:56:40.861Z,88.96
2022-12-23T01:59:32.477Z,89.45
2022-12-23T02:02:19.540Z,89.89
2022-12-23T02:04:49.883Z,88.91
2022-12-23T02:07:36.544Z,88.65
2022-12-23T02:10:05.735Z,88.86
2022-12-23T02:12:55.084Z,89.21
2022-12-23T02:15:53.568Z,90.05
2022-12-23T02:18:57.388Z,91.63
2022-12-23T02:22:01.999Z,90.36
2022-12-23T02:24:54.057Z,89.11
2022-12-23T02:27:44.383Z,89.30
2022-12-23T02:30:39.026Z,89.45
2022-12-23T02:33:13.972Z,89.85
2022-12-23T02:36:16.883Z,89.14
2022-12-23T02:38:59.703Z,89.21
2022-12-23T02:41:59.304Z,87.95
2022-12-23T02:44:39.602Z,90.04
2022-12-23T02:47:34.882Z,89.34
2022-12-23T02:50:20.335Z,89.87
2022-12-23T02:52:49.982Z,89.06
2022-12-23T02:55:28.965Z,89.01
2022-12-23T02:58:00.927Z,88.44
2022-12-23T03:00:29.988Z,89.04
2022-12-23T03:02:58.076Z,88.73
2022-12-23T03:05:40.601Z,88.37
2022-12-23T03:08:22.602Z,88.80
2022-12-23T03:11:07.317Z,88.35
2022-12-23T03:14:05.942Z,88.10
2022-12-23T03:16:45.490Z,88.54
2022-12-23T03:19:25.273Z,87.39
2022-12-23T03:22:15.488Z,88.09
2022-12-23T03:24:52.160Z,89.08
2022-12-23T03:27:31.272Z,89.36
2022-12-23T03:30:08.680Z,89.62
2022-12-23T03:32:53.064Z,88.98
2022-12-23T03:35:27.076Z,89.08
2022-12-23T03:37:56.589Z,88.70
2022-12-23T03:40:32.967Z,89.18
2022-12-23T03:43:08.111Z,89.94
2022-12-23T03:45:50.888Z,90.45
2022-12-23T03:48:27.805Z,90.33
2022-12-23T03:51:04.263Z,90.79
2022-12-23T03:53:39.334Z,90.94
2022-12-23T03:56:13.222Z,89.43
2022-12-23T03:58:52.840Z,90.17
2022-12-23T04:01:32.642Z,89.68
2022-12-23T04:04:12.033Z,89.88
2022-12-23T04:06:46.877Z,89.69
2022-12-23T04:09:21.765Z,89.73
2022-12-23T04:11:56.818Z,89.47
2022-12-23T04:14:24.453Z,89.29
2022-12-23T04:16:56.121Z,88.02
2022-12-23T04:19:24.033Z,88.72
2022-12-23T04:21:51.918Z,89.28
2022-12-23T04:24:19.406Z,88.84
2022-12-23T04:26:46.941Z,89.19
2022-12-23T04:29:14.494Z,89.69
2022-12-23T04:31:42.534Z,90.05
2022-12-23T04:34:10.139Z,89.98
2022-12-23T04:36:37.647Z,90.32
2022-12-23T04:39:05.096Z,90.35
2022-12-23T04:41:32.957Z,90.19
2022-12-23T04:44:00.520Z,90.36
2022-12-23T04:46:28.037Z,89.75
2022-12-23T04:48:55.858Z,89.57
2022-12-23T04:51:23.750Z,89.71
2022-12-23T04:53:51.266Z,89.56
2022-12-23T04:56:19.874Z,90.48
2022-12-23T04:58:47.541Z,90.55
2022-12-23T05:01:15.453Z,89.26
2022-12-23T05:03:43.074Z,88.89
2022-12-23T05:06:10.715Z,89.75
2022-12-23T05:08:44.606Z,89.83
2022-12-23T05:11:12.239Z,88.70
2022-12-23T05:13:39.783Z,89.46
2022-12-23T05:16:07.500Z,89.53
2022-12-23T05:18:35.333Z,90.00
2022-12-23T05:21:03.043Z,89.74
2022-12-23T05:23:30.668Z,88.83
2022-12-23T05:25:58.182Z,89.21
2022-12-23T05:28:26.052Z,89.84
2022-12-23T05:31:02.696Z,89.82
2022-12-23T05:33:30.922Z,89.95
2022-12-23T05:35:58.911Z,89.66
2022-12-23T05:38:26.794Z,88.98
2022-12-23T05:40:54.508Z,90.29
2022-12-23T05:43:22.143Z,90.16
2022-12-23T05:45:50.360Z,90.14
2022-12-23T05:48:18.281Z,89.49
2022-12-23T05:50:45.854Z,91.19
2022-12-23T05:53:13.311Z,91.07
2022-12-23T05:55:40.797Z,90.93
2022-12-23T05:58:08.288Z,90.38
2022-12-23T06:00:35.819Z,90.49
2022-12-23T06:03:03.762Z,90.30
2022-12-23T06:05:31.375Z,89.98
2022-12-23T06:07:59.128Z,89.27
2022-12-23T06:10:27.437Z,90.21
2022-12-23T06:12:54.911Z,89.69
2022-12-23T06:15:22.507Z,89.96
2022-12-23T06:17:50.080Z,90.91
2022-12-23T06:20:20.709Z,90.32
2022-12-23T06:22:48.712Z,90.50
2022-12-23T06:25:16.521Z,89.81
2022-12-23T06:27:44.372Z,90.84
2022-12-23T06:30:12.961Z,90.38
2022-12-23T06:32:41.792Z,90.18
2022-12-23T06:35:09.595Z,89.85
2022-12-23T06:37:37.096Z,90.21
2022-12-23T06:40:06.582Z,89.87
2022-12-23T06:42:34.187Z,90.28
2022-12-23T06:45:01.722Z,90.76
2022-12-23T06:47:29.423Z,90.68
2022-12-23T06:49:57.995Z,90.84
2022-12-23T06:52:25.746Z,90.32
2022-12-23T06:54:53.225Z,90.53
2022-12-23T06:57:20.724Z,90.99
2022-12-23T06:59:49.927Z,90.92
2022-12-23T07:02:17.663Z,89.74
2022-12-23T07:04:45.499Z,89.93
2022-12-23T07:07:13.327Z,90.29
2022-12-23T07:09:40.863Z,90.77
2022-12-23T07:12:08.694Z,90.64
2022-12-23T07:14:36.250Z,90.46
2022-12-23T07:17:03.832Z,90.31
2022-12-23T07:19:31.594Z,90.75
2022-12-23T07:21:59.195Z,89.88
2022-12-23T07:24:28.289Z,89.49
2022-12-23T07:26:56.051Z,90.00
2022-12-23T07:29:23.651Z,89.72
2022-12-23T07:31:51.266Z,89.21
2022-12-23T07:34:19.079Z,89.78
2022-12-23T07:36:46.589Z,89.71
2022-12-23T07:39:14.077Z,88.68
2022-12-23T07:41:41.686Z,89.71
2022-12-23T07:44:09.211Z,89.33
2022-12-23T07:46:37.423Z,88.89
2022-12-23T07:49:05.348Z,89.18
2022-12-23T07:51:32.869Z,89.13
2022-12-23T07:54:00.363Z,89.26
2022-12-23T07:56:27.814Z,88.50
2022-12-23T07:58:55.449Z,87.88
2022-12-23T08:01:23.432Z,87.64
2022-12-23T08:03:51.062Z,89.04
2022-12-23T08:06:18.596Z,86.27
2022-12-23T08:08:47.048Z,86.46
2022-12-23T08:11:15.798Z,87.33
2022-12-23T08:13:45.165Z,87.89
2022-12-23T08:16:12.918Z,87.65
2022-12-23T08:18:42.014Z,88.49
2022-12-23T08:21:14.939Z,88.04
2022-12-23T08:23:43.697Z,88.37
2022-12-23T08:26:18.416Z,87.21
2022-12-23T08:28:46.095Z,87.68
2022-12-23T08:31:25.293Z,88.21
2022-12-23T08:33:55.640Z,88.18
2022-12-23T08:36:30.919Z,88.48
2022-12-23T08:39:01.562Z,88.98
2022-12-23T08:41:32.844Z,89.23
2022-12-23T08:44:00.545Z,88.56
2022-12-23T08:46:28.496Z,88.53
2022-12-23T08:48:56.291Z,88.79
2022-12-23T08:51:25.460Z,87.67
2022-12-23T08:54:00.074Z,87.80
2022-12-23T08:56:35.216Z,88.20
2022-12-23T08:59:03.607Z,88.63
2022-12-23T09:01:33.731Z,88.25
2022-12-23T09:04:06.156Z,87.40
2022-12-23T09:06:40.714Z,87.35
2022-12-23T09:09:10.678Z,88.19
2022-12-23T09:11:39.121Z,87.81
2022-12-23T09:14:08.616Z,87.95
2022-12-23T09:16:36.687Z,87.79
2022-12-23T09:19:04.888Z,88.23
2022-12-23T09:21:32.435Z,88.71
2022-12-23T09:24:00.175Z,88.34
2022-12-23T09:26:29.845Z,87.84
2022-12-23T09:28:57.589Z,87.53
2022-12-23T09:31:30.481Z,88.13
2022-12-23T09:34:01.799Z,87.11
2022-12-23T09:36:29.918Z,85.22
2022-12-23T09:38:58.170Z,88.04
2022-12-23T09:41:31.243Z,87.41
2022-12-23T09:44:27.997Z,88.08
2022-12-23T09:47:02.119Z,88.16
2022-12-23T09:49:30.102Z,88.38
2022-12-23T09:52:05.963Z,88.54
2022-12-23T09:54:42.243Z,88.64
2022-12-23T09:57:36.444Z,88.31
2022-12-23T10:00:13.150Z,88.37
2022-12-23T10:03:16.343Z,88.84
2022-12-23T10:06:00.482Z,87.08
2022-12-23T10:08:52.805Z,87.37
2022-12-23T10:11:34.104Z,87.45
2022-12-23T10:14:11.149Z,88.72
2022-12-23T10:16:41.505Z,87.26
2022-12-23T10:19:20.740Z,87.33
2022-12-23T10:21:51.815Z,87.89
2022-12-23T10:24:28.556Z,87.62
2022-12-23T10:27:00.789Z,88.17
2022-12-23T10:29:32.733Z,87.96
2022-12-23T10:32:31.315Z,87.75
2022-12-23T10:35:23.653Z,88.54
2022-12-23T10:38:27.893Z,87.34
2022-12-23T10:41:25.354Z,87.69
2022-12-23T10:44:15.245Z,87.85
2022-12-23T10:47:10.022Z,88.10
2022-12-23T10:50:09.537Z,87.80
2022-12-23T10:52:40.824Z,87.90
2022-12-23T10:55:33.727Z,88.01
2022-12-23T10:58:14.664Z,88.26
2022-12-23T11:00:46.730Z,87.89
2022-12-23T11:03:20.232Z,88.39
2022-12-23T11:05:50.795Z,88.50
2022-12-23T11:08:23.877Z,88.56
2022-12-23T11:10:51.456Z,88.13
2022-12-23T11:13:47.018Z,88.22
2022-12-23T11:16:16.925Z,88.16
2022-12-23T11:18:56.700Z,87.33
2022-12-23T11:21:26.093Z,88.72
2022-12-23T11:24:14.521Z,88.68
2022-12-23T11:26:44.697Z,88.31
2022-12-23T11:29:27.557Z,86.12
2022-12-23T11:31:55.381Z,87.22
2022-12-23T11:34:25.885Z,87.51
2022-12-23T11:37:03.635Z,87.87
2022-12-23T11:39:37.137Z,83.57
2022-12-23T11:42:11.999Z,86.88
2022-12-23T11:44:46.464Z,86.77
2022-12-23T11:47:23.096Z,87.10
2022-12-23T11:49:54.492Z,87.91
2022-12-23T11:52:29.035Z,87.51
2022-12-23T11:55:00.679Z,86.87
2022-12-23T11:57:40.710Z,87.40
2022-12-23T12:00:34.679Z,87.43
2022-12-23T12:03:04.943Z,86.92
2022-12-23T12:05:40.718Z,87.25
2022-12-23T12:08:16.564Z,87.43
2022-12-23T12:10:44.382Z,87.53
2022-12-23T12:13:29.275Z,87.13
2022-12-23T12:16:06.419Z,88.15
2022-12-23T12:18:34.923Z,87.92
2022-12-23T12:21:07.372Z,87.55
2022-12-23T12:23:41.133Z,88.28
2022-12-23T12:26:26.990Z,87.92
2022-12-23T12:29:02.689Z,87.95
2022-12-23T12:31:35.999Z,88.52
2022-12-23T12:34:40.445Z,87.85
2022-12-23T12:37:48.293Z,88.18
2022-12-23T12:40:22.565Z,88.82
2022-12-23T12:43:04.976Z,89.02
2022-12-23T12:45:43.867Z,87.96
2022-12-23T12:48:40.657Z,87.47
2022-12-23T12:51:13.051Z,88.76
2022-12-23T12:54:27.727Z,88.19
2022-12-23T12:56:58.397Z,87.90
2022-12-23T12:59:28.390Z,88.05
2022-12-23T13:02:10.958Z,87.81
2022-12-23T13:05:25.962Z,87.97
2022-12-23T13:08:30.262Z,88.29
2022-12-23T13:11:13.942Z,88.17
2022-12-23T13:14:17.427Z,89.31
2022-12-23T13:16:59.269Z,88.66
2022-12-23T13:19:47.106Z,88.62
2022-12-23T13:22:18.062Z,88.95
2022-12-23T13:25:03.340Z,88.39
2022-12-23T13:27:38.767Z,87.73
2022-12-23T13:30:18.028Z,88.04
2022-12-23T13:33:07.923Z,88.83
2022-12-23T13:35:39.313Z,86.91
2022-12-23T13:38:09.488Z,88.74
2022-12-23T13:40:55.221Z,88.65
2022-12-23T13:43:25.291Z,89.00
2022-12-23T13:45:55.437Z,88.82
2022-12-23T13:48:22.982Z,88.80
2022-12-23T13:51:00.889Z,87.95
2022-12-23T13:53:34.338Z,87.92
2022-12-23T13:56:20.098Z,87.81
2022-12-23T13:58:49.753Z,88.28
2022-12-23T14:01:17.796Z,88.63
2022-12-23T14:03:49.932Z,88.28
2022-12-23T14:06:24.654Z,87.81
2022-12-23T14:08:54.436Z,88.41
2022-12-23T14:11:32.087Z,88.59
2022-12-23T14:14:05.424Z,88.68
2022-12-23T14:16:42.213Z,89.54
2022-12-23T14:19:18.841Z,88.59
2022-12-23T14:22:01.422Z,89.79
2022-12-23T14:24:50.181Z,89.18
2022-12-23T14:27:41.635Z,89.28
2022-12-23T14:30:37.362Z,88.61
2022-12-23T14:33:14.981Z,89.42
2022-12-23T14:35:43.023Z,89.33
2022-12-23T14:38:25.065Z,88.53
2022-12-23T14:40:54.408Z,88.68
2022-12-23T14:43:22.233Z,87.17
2022-12-23T14:45:58.289Z,88.93
2022-12-23T14:49:09.622Z,88.97
2022-12-23T14:51:40.648Z,88.51
2022-12-23T14:54:09.366Z,89.09
2022-12-23T14:56:39.620Z,89.25
2022-12-23T14:59:15.851Z,89.10
2022-12-23T15:01:51.835Z,88.51
2022-12-23T15:04:58.588Z,88.48
2022-12-23T15:07:38.654Z,88.19
2022-12-23T15:10:17.571Z,87.39
2022-12-23T15:12:52.099Z,88.12
2022-12-23T15:15:25.272Z,88.64
2022-12-23T15:18:07.169Z,88.88
2022-12-23T15:20:35.297Z,88.73
2022-12-23T15:23:11.994Z,88.89
2022-12-23T15:25:43.410Z,89.05
2022-12-23T15:28:18.289Z,89.16
2022-12-23T15:30:56.735Z,89.14
2022-12-23T15:34:01.602Z,88.83
2022-12-23T15:36:24.782Z,88.58
2022-12-23T15:38:52.626Z,88.66
2022-12-23T15:41:22.341Z,89.72
2022-12-23T15:43:50.177Z,89.47
2022-12-23T15:46:29.014Z,88.80
2022-12-23T15:48:58.323Z,88.22
2022-12-23T15:52:05.155Z,88.45
2022-12-23T15:54:27.670Z,88.85
2022-12-23T15:56:58.675Z,89.45
2022-12-23T15:59:37.263Z,89.27
2022-12-23T16:02:49.685Z,89.59
2022-12-23T16:05:05.288Z,89.46
2022-12-23T16:07:35.040Z,89.48
2022-12-23T16:10:32.689Z,89.56
2022-12-23T16:13:00.403Z,89.21
2022-12-23T16:15:33.263Z,84.48
2022-12-23T16:18:19.243Z,83.58
2022-12-23T16:20:51.701Z,86.06
2022-12-23T16:23:20.723Z,87.84
2022-12-23T16:25:50.876Z,88.76
2022-12-23T16:28:26.563Z,88.92
2022-12-23T16:30:57.441Z,89.22
2022-12-23T16:33:30.160Z,89.39
2022-12-23T16:36:33.361Z,89.08
2022-12-23T16:39:14.579Z,89.79
2022-12-23T16:41:42.170Z,89.16
2022-12-23T16:44:09.615Z,88.88
2022-12-23T16:46:42.208Z,89.31
2022-12-23T16:49:16.876Z,89.18
2022-12-23T16:51:47.082Z,89.33
2022-12-23T16:54:19.871Z,85.12
2022-12-23T16:56:47.457Z,87.53
2022-12-23T16:59:15.414Z,88.25
2022-12-23T17:01:45.972Z,88.24
2022-12-23T17:04:14.357Z,88.16
2022-12-23T17:06:41.973Z,88.98
2022-12-23T17:09:11.322Z,89.12
2022-12-23T17:11:44.846Z,89.20
2022-12-23T17:14:18.949Z,89.03
2022-12-23T17:16:47.060Z,88.74
2022-12-23T17:19:14.614Z,89.52
2022-12-23T17:21:44.647Z,89.23
2022-12-23T17:24:26.814Z,89.73
2022-12-23T17:26:56.793Z,90.44
2022-12-23T17:29:25.321Z,89.58
2022-12-23T17:31:53.160Z,89.39
2022-12-23T17:34:23.414Z,89.79
2022-12-23T17:36:51.733Z,89.69
2022-12-23T17:39:21.572Z,89.80
2022-12-23T17:41:49.579Z,89.64
2022-12-23T17:44:18.288Z,89.98
2022-12-23T17:46:46.810Z,89.25
2022-12-23T17:49:14.636Z,88.78
2022-12-23T17:51:42.861Z,89.40
2022-12-23T17:54:30.800Z,89.55
2022-12-23T17:56:58.500Z,89.84
2022-12-23T17:59:26.036Z,89.40
2022-12-23T18:01:55.183Z,90.02
2022-12-23T18:04:22.681Z,90.17
2022-12-23T18:06:50.205Z,89.88
2022-12-23T18:09:18.826Z,89.50
2022-12-23T18:11:47.913Z,89.90
2022-12-23T18:14:24.767Z,89.69
2022-12-23T18:16:52.440Z,89.12
2022-12-23T18:19:21.526Z,89.54
2022-12-23T18:21:49.898Z,89.45
2022-12-23T18:24:18.310Z,89.59
2022-12-23T18:26:45.845Z,90.15
2022-12-23T18:29:13.418Z,90.46
2022-12-23T18:31:50.931Z,90.62
2022-12-23T18:34:20.121Z,90.62
2022-12-23T18:36:48.429Z,90.61
2022-12-23T18:39:16.229Z,89.51
2022-12-23T18:41:43.849Z,89.56
2022-12-23T18:44:21.478Z,89.93
2022-12-23T18:46:49.596Z,89.79
2022-12-23T18:49:17.243Z,90.16
2022-12-23T18:51:45.756Z,89.79
2022-12-23T18:54:15.261Z,89.25
2022-12-23T18:56:43.092Z,89.97
2022-12-23T18:59:29.286Z,88.45
2022-12-23T19:01:58.335Z,88.74
2022-12-23T19:04:26.993Z,89.22
2022-12-23T19:06:55.846Z,89.20
2022-12-23T19:09:24.363Z,88.84
2022-12-23T19:11:53.903Z,89.18
2022-12-23T19:14:21.703Z,89.38
2022-12-23T19:16:52.082Z,88.81
2022-12-23T19:19:21.355Z,89.14
2022-12-23T19:21:48.951Z,89.18
2022-12-23T19:24:18.190Z,89.14
2022-12-23T19:26:47.056Z,89.39
2022-12-23T19:29:14.765Z,88.42
2022-12-23T19:31:42.400Z,88.54
2022-12-23T19:34:15.038Z,89.38
2022-12-23T19:36:43.810Z,89.26
2022-12-23T19:39:16.351Z,89.47
2022-12-23T19:41:46.277Z,89.85
2022-12-23T19:44:14.276Z,89.62
2022-12-23T19:46:42.044Z,90.17
2022-12-23T19:49:14.084Z,89.86
2022-12-23T19:51:45.200Z,90.43
2022-12-23T19:54:12.804Z,89.59
2022-12-23T19:56:40.446Z,89.93
2022-12-23T19:59:07.984Z,89.18
2022-12-23T20:01:35.581Z,89.06
2022-12-23T20:04:03.391Z,89.42
2022-12-23T20:06:33.854Z,90.58
2022-12-23T20:09:04.367Z,90.18
2022-12-23T20:11:46.887Z,90.38
2022-12-23T20:14:17.367Z,89.80
2022-12-23T20:16:44.919Z,89.39
2022-12-23T20:19:12.455Z,89.51
2022-12-23T20:21:40.470Z,89.55
2022-12-23T20:24:08.486Z,89.75
2022-12-23T20:26:36.058Z,89.68
2022-12-23T20:29:03.675Z,87.63
2022-12-23T20:31:33.515Z,88.43
2022-12-23T20:34:02.392Z,88.96
2022-12-23T20:36:33.155Z,89.06
2022-12-23T20:39:03.366Z,89.06
2022-12-23T20:41:32.125Z,89.12
2022-12-23T20:46:47.438Z,90.10
2022-12-23T20:49:15.129Z,89.65
2022-12-23T20:51:42.655Z,90.21
2022-12-23T20:54:10.280Z,89.88
2022-12-23T20:56:37.887Z,89.36
2022-12-23T20:59:05.485Z,89.48
2022-12-23T21:01:35.841Z,89.27
2022-12-23T21:04:12.931Z,89.28
2022-12-23T21:06:40.682Z,90.17
2022-12-23T21:09:11.704Z,90.31
2022-12-23T21:11:43.099Z,89.93
2022-12-23T21:14:11.909Z,90.16
2022-12-23T21:16:40.414Z,90.24
2022-12-23T21:19:20.584Z,90.12
2022-12-23T21:21:49.410Z,89.90
2022-12-23T21:24:17.904Z,89.33
2022-12-23T21:26:48.967Z,89.75
2022-12-23T21:29:20.056Z,89.41
2022-12-23T21:31:47.835Z,89.63
2022-12-23T21:34:15.594Z,89.95
2022-12-23T21:36:43.669Z,89.73
2022-12-23T21:39:14.801Z,90.40
2022-12-23T21:41:42.698Z,90.46
2022-12-23T21:44:11.753Z,89.98
2022-12-23T21:46:39.232Z,90.51
2022-12-23T21:49:06.752Z,90.10
2022-12-23T21:51:40.001Z,90.46
2022-12-23T21:54:11.936Z,89.60
2022-12-23T21:56:40.743Z,90.12
2022-12-23T21:59:13.445Z,89.56
2022-12-23T22:01:42.862Z,89.84
2022-12-23T22:04:11.343Z,89.21
2022-12-23T22:06:43.774Z,90.05
2022-12-23T22:09:17.270Z,89.33
2022-12-23T22:11:47.075Z,90.09
2022-12-23T22:14:16.873Z,89.98
2022-12-23T22:16:44.532Z,89.36
2022-12-23T22:19:12.425Z,90.28
2022-12-23T22:21:40.126Z,88.93
2022-12-23T22:24:08.434Z,89.86
2022-12-23T22:26:36.194Z,89.97
2022-12-23T22:29:05.702Z,90.04
2022-12-23T22:31:37.979Z,89.66
2022-12-23T22:34:07.145Z,90.20
2022-12-23T22:36:35.183Z,90.06
2022-12-23T22:39:03.042Z,90.48
2022-12-23T22:41:31.276Z,90.24
2022-12-23T22:43:59.912Z,90.12
2022-12-23T22:46:27.905Z,89.69
2022-12-23T22:48:56.448Z,89.93
2022-12-23T22:51:29.552Z,90.48
2022-12-23T22:53:57.851Z,90.76
2022-12-23T22:56:26.502Z,90.21
2022-12-23T22:58:55.559Z,89.88
2022-12-23T23:01:29.303Z,90.11
2022-12-23T23:03:58.633Z,90.08
2022-12-23T23:06:29.402Z,89.30
2022-12-23T23:08:58.142Z,89.92
2022-12-23T23:11:27.206Z,90.70
2022-12-23T23:13:55.324Z,90.72
2022-12-23T23:16:24.565Z,90.15
2022-12-23T23:18:53.162Z,90.24
2022-12-23T23:21:22.515Z,89.87
2022-12-23T23:23:50.199Z,89.99
2022-12-23T23:26:19.013Z,90.26
2022-12-23T23:28:47.412Z,89.90
2022-12-23T23:31:45.364Z,89.86
2022-12-23T23:34:03.114Z,90.17
2022-12-23T23:36:30.604Z,90.72
2022-12-23T23:38:58.379Z,91.23
2022-12-23T23:41:26.636Z,90.13
2022-12-23T23:43:54.247Z,90.40
2022-12-23T23:46:21.865Z,90.65
2022-12-23T23:48:49.627Z,90.24
2022-12-23T23:51:17.618Z,90.18
2022-12-23T23:53:45.419Z,89.65
2022-12-23T23:56:12.933Z,90.09
2022-12-23T23:58:40.510Z,89.89
